sensor_id;sensor_type;location;lat;lon;timestamp;pressure;altitude;pressure_sealevel;temperature;humidity
17525;BME280;40431;52.198;9.902;2022-11-20T00:01:39;100426.44;;;-2.85;98.75
17525;BME280;40431;52.198;9.902;2022-11-20T00:04:10;100417.63;;;-2.87;98.88
17525;BME280;40431;52.198;9.902;2022-11-20T00:06:38;100425.56;;;-2.87;98.51
17525;BME280;40431;52.198;9.902;2022-11-20T00:09:10;100417.66;;;-2.93;98.34
17525;BME280;40431;52.198;9.902;2022-11-20T00:11:38;100418.56;;;-2.94;98.11
17525;BME280;40431;52.198;9.902;2022-11-20T00:14:06;100426.53;;;-2.94;97.66
17525;BME280;40431;52.198;9.902;2022-11-20T00:16:39;100422.97;;;-2.90;97.90
17525;BME280;40431;52.198;9.902;2022-11-20T00:19:09;100411.50;;;-2.95;98.29
17525;BME280;40431;52.198;9.902;2022-11-20T00:21:41;100415.06;;;-3.00;97.83
17525;BME280;40431;52.198;9.902;2022-11-20T00:24:15;100417.78;;;-3.08;97.04
17525;BME280;40431;52.198;9.902;2022-11-20T00:26:45;100419.53;;;-3.04;96.20
17525;BME280;40431;52.198;9.902;2022-11-20T00:29:28;100415.97;;;-3.05;96.44
17525;BME280;40431;52.198;9.902;2022-11-20T00:32:01;100412.50;;;-3.08;95.92
17525;BME280;40431;52.198;9.902;2022-11-20T00:34:28;100408.97;;;-3.12;95.74
17525;BME280;40431;52.198;9.902;2022-11-20T00:37:02;100408.09;;;-3.12;95.97
17525;BME280;40431;52.198;9.902;2022-11-20T00:39:30;100414.25;;;-3.10;95.48
17525;BME280;40431;52.198;9.902;2022-11-20T00:41:58;100409.84;;;-3.11;95.49
17525;BME280;40431;52.198;9.902;2022-11-20T00:44:27;100416.06;;;-3.12;95.48
17525;BME280;40431;52.198;9.902;2022-11-20T00:46:55;100414.22;;;-3.07;95.48
17525;BME280;40431;52.198;9.902;2022-11-20T00:49:35;100408.94;;;-3.10;96.12
17525;BME280;40431;52.198;9.902;2022-11-20T00:52:15;100405.44;;;-3.15;95.13
17525;BME280;40431;52.198;9.902;2022-11-20T00:54:46;100406.34;;;-3.18;95.71
17525;BME280;40431;52.198;9.902;2022-11-20T00:57:13;100405.47;;;-3.17;96.57
17525;BME280;40431;52.198;9.902;2022-11-20T00:59:41;100398.41;;;-3.18;95.90
17525;BME280;40431;52.198;9.902;2022-11-20T01:02:10;100407.25;;;-3.21;95.11
17525;BME280;40431;52.198;9.902;2022-11-20T01:04:39;100391.38;;;-3.25;95.44
17525;BME280;40431;52.198;9.902;2022-11-20T01:07:09;100404.66;;;-3.30;95.24
17525;BME280;40431;52.198;9.902;2022-11-20T01:09:37;100402.00;;;-3.30;94.81
17525;BME280;40431;52.198;9.902;2022-11-20T01:12:05;100405.53;;;-3.28;95.77
17525;BME280;40431;52.198;9.902;2022-11-20T01:14:33;100399.34;;;-3.30;95.14
17525;BME280;40431;52.198;9.902;2022-11-20T01:17:01;100399.41;;;-3.34;95.43
17525;BME280;40431;52.198;9.902;2022-11-20T01:19:28;100407.38;;;-3.39;95.13
17525;BME280;40431;52.198;9.902;2022-11-20T01:21:58;100402.94;;;-3.37;94.76
17525;BME280;40431;52.198;9.902;2022-11-20T01:24:25;100394.97;;;-3.34;94.64
17525;BME280;40431;52.198;9.902;2022-11-20T01:26:53;100388.81;;;-3.38;94.93
17525;BME280;40431;52.198;9.902;2022-11-20T01:29:23;100395.88;;;-3.37;95.49
17525;BME280;40431;52.198;9.902;2022-11-20T01:31:52;100395.88;;;-3.37;96.18
17525;BME280;40431;52.198;9.902;2022-11-20T01:34:21;100388.84;;;-3.44;95.85
17525;BME280;40431;52.198;9.902;2022-11-20T01:36:49;100380.94;;;-3.47;94.71
17525;BME280;40431;52.198;9.902;2022-11-20T01:39:23;100376.50;;;-3.46;95.81
17525;BME280;40431;52.198;9.902;2022-11-20T01:41:53;100378.28;;;-3.50;96.50
17525;BME280;40431;52.198;9.902;2022-11-20T01:44:57;100377.44;;;-3.54;96.89
17525;BME280;40431;52.198;9.902;2022-11-20T01:47:30;100369.50;;;-3.58;96.52
17525;BME280;40431;52.198;9.902;2022-11-20T01:50:03;100369.50;;;-3.54;97.07
17525;BME280;40431;52.198;9.902;2022-11-20T01:52:34;100366.84;;;-3.57;96.87
17525;BME280;40431;52.198;9.902;2022-11-20T01:55:07;100352.69;;;-3.56;97.64
17525;BME280;40431;52.198;9.902;2022-11-20T01:57:35;100356.25;;;-3.54;97.08
17525;BME280;40431;52.198;9.902;2022-11-20T02:00:06;100354.47;;;-3.58;97.06
17525;BME280;40431;52.198;9.902;2022-11-20T02:02:34;100357.16;;;-3.62;97.02
17525;BME280;40431;52.198;9.902;2022-11-20T02:05:08;100352.72;;;-3.62;98.26
17525;BME280;40431;52.198;9.902;2022-11-20T02:07:36;100349.19;;;-3.61;97.81
17525;BME280;40431;52.198;9.902;2022-11-20T02:10:06;100347.47;;;-3.65;96.16
17525;BME280;40431;52.198;9.902;2022-11-20T02:12:32;100344.84;;;-3.68;96.26
17525;BME280;40431;52.198;9.902;2022-11-20T02:15:17;100354.59;;;-3.79;96.63
17525;BME280;40431;52.198;9.902;2022-11-20T02:17:43;100351.09;;;-3.84;96.71
17525;BME280;40431;52.198;9.902;2022-11-20T02:20:10;100352.97;;;-4.05;96.63
17525;BME280;40431;52.198;9.902;2022-11-20T02:22:43;100354.78;;;-4.16;97.14
17525;BME280;40431;52.198;9.902;2022-11-20T02:25:15;100353.06;;;-4.24;96.78
17525;BME280;40431;52.198;9.902;2022-11-20T02:27:42;100355.69;;;-4.21;98.08
17525;BME280;40431;52.198;9.902;2022-11-20T02:30:10;100351.28;;;-4.20;98.79
17525;BME280;40431;52.198;9.902;2022-11-20T02:32:37;100354.78;;;-4.13;99.25
17525;BME280;40431;52.198;9.902;2022-11-20T02:35:08;100347.72;;;-4.14;99.35
17525;BME280;40431;52.198;9.902;2022-11-20T02:37:37;100349.44;;;-4.09;98.50
17525;BME280;40431;52.198;9.902;2022-11-20T02:40:06;100349.41;;;-3.95;99.82
17525;BME280;40431;52.198;9.902;2022-11-20T02:42:34;100345.84;;;-3.89;100.00
17525;BME280;40431;52.198;9.902;2022-11-20T02:45:01;100331.69;;;-3.90;100.00
17525;BME280;40431;52.198;9.902;2022-11-20T02:47:27;100327.28;;;-3.88;100.00
17525;BME280;40431;52.198;9.902;2022-11-20T02:49:54;100329.06;;;-3.91;100.00
17525;BME280;40431;52.198;9.902;2022-11-20T02:52:20;100336.09;;;-3.89;100.00
17525;BME280;40431;52.198;9.902;2022-11-20T02:54:47;100331.69;;;-3.85;100.00
17525;BME280;40431;52.198;9.902;2022-11-20T02:57:13;100333.44;;;-3.84;100.00
17525;BME280;40431;52.198;9.902;2022-11-20T02:59:41;100329.91;;;-3.81;100.00
17525;BME280;40431;52.198;9.902;2022-11-20T03:02:08;100330.78;;;-3.81;99.39
17525;BME280;40431;52.198;9.902;2022-11-20T03:04:34;100329.00;;;-3.77;98.31
17525;BME280;40431;52.198;9.902;2022-11-20T03:07:01;100329.03;;;-3.83;97.51
17525;BME280;40431;52.198;9.902;2022-11-20T03:09:27;100328.19;;;-3.92;96.78
17525;BME280;40431;52.198;9.902;2022-11-20T03:11:54;100332.59;;;-3.89;98.80
17525;BME280;40431;52.198;9.902;2022-11-20T03:14:21;100330.84;;;-3.93;98.55
17525;BME280;40431;52.198;9.902;2022-11-20T03:16:48;100327.31;;;-3.91;98.61
17525;BME280;40431;52.198;9.902;2022-11-20T03:19:15;100324.63;;;-3.88;99.51
17525;BME280;40431;52.198;9.902;2022-11-20T03:21:42;100329.03;;;-3.85;99.75
17525;BME280;40431;52.198;9.902;2022-11-20T03:24:08;100327.28;;;-3.88;98.92
17525;BME280;40431;52.198;9.902;2022-11-20T03:26:35;100321.97;;;-3.88;97.67
17525;BME280;40431;52.198;9.902;2022-11-20T03:29:03;100321.94;;;-3.84;98.52
17525;BME280;40431;52.198;9.902;2022-11-20T03:31:32;100321.94;;;-3.83;98.29
17525;BME280;40431;52.198;9.902;2022-11-20T03:34:00;100307.84;;;-3.85;98.28
17525;BME280;40431;52.198;9.902;2022-11-20T03:36:27;100318.47;;;-3.88;97.86
17525;BME280;40431;52.198;9.902;2022-11-20T03:38:55;100307.03;;;-3.98;98.05
17525;BME280;40431;52.198;9.902;2022-11-20T03:41:24;100305.31;;;-4.05;97.64
17525;BME280;40431;52.198;9.902;2022-11-20T03:43:53;100301.81;;;-4.12;97.32
17525;BME280;40431;52.198;9.902;2022-11-20T03:46:20;100307.06;;;-4.04;98.09
17525;BME280;40431;52.198;9.902;2022-11-20T03:48:47;100306.16;;;-4.00;98.54
17525;BME280;40431;52.198;9.902;2022-11-20T03:51:17;100301.72;;;-3.98;98.58
17525;BME280;40431;52.198;9.902;2022-11-20T03:53:46;100301.75;;;-4.01;98.32
17525;BME280;40431;52.198;9.902;2022-11-20T03:56:14;100301.72;;;-3.95;99.18
17525;BME280;40431;52.198;9.902;2022-11-20T03:58:40;100310.56;;;-3.96;98.52
17525;BME280;40431;52.198;9.902;2022-11-20T04:01:08;100306.16;;;-4.02;97.83
17525;BME280;40431;52.198;9.902;2022-11-20T04:03:35;100304.41;;;-4.01;98.02
17525;BME280;40431;52.198;9.902;2022-11-20T04:06:03;100294.66;;;-3.96;98.74
17525;BME280;40431;52.198;9.902;2022-11-20T04:08:31;100293.78;;;-3.98;98.37
17525;BME280;40431;52.198;9.902;2022-11-20T04:11:08;100290.22;;;-3.95;99.87
17525;BME280;40431;52.198;9.902;2022-11-20T04:13:35;100288.47;;;-3.95;100.00
17525;BME280;40431;52.198;9.902;2022-11-20T04:16:01;100284.91;;;-3.94;100.00
17525;BME280;40431;52.198;9.902;2022-11-20T04:18:28;100284.03;;;-3.93;100.00
17525;BME280;40431;52.198;9.902;2022-11-20T04:20:56;100284.97;;;-4.00;100.00
17525;BME280;40431;52.198;9.902;2022-11-20T04:23:22;100281.44;;;-4.00;99.90
17525;BME280;40431;52.198;9.902;2022-11-20T04:25:50;100273.47;;;-4.00;99.66
17525;BME280;40431;52.198;9.902;2022-11-20T04:28:17;100271.72;;;-4.03;99.69
17525;BME280;40431;52.198;9.902;2022-11-20T04:30:43;100270.88;;;-4.04;98.49
17525;BME280;40431;52.198;9.902;2022-11-20T04:33:11;100272.66;;;-4.04;98.37
17525;BME280;40431;52.198;9.902;2022-11-20T04:35:37;100278.78;;;-4.00;98.90
17525;BME280;40431;52.198;9.902;2022-11-20T04:38:04;100275.22;;;-3.98;99.86
17525;BME280;40431;52.198;9.902;2022-11-20T04:40:30;100274.34;;;-3.97;99.47
17525;BME280;40431;52.198;9.902;2022-11-20T04:42:59;100280.50;;;-3.92;99.21
17525;BME280;40431;52.198;9.902;2022-11-20T04:45:25;100276.97;;;-3.94;97.93
17525;BME280;40431;52.198;9.902;2022-11-20T04:47:52;100283.19;;;-3.95;97.96
17525;BME280;40431;52.198;9.902;2022-11-20T04:50:19;100275.22;;;-3.92;98.74
17525;BME280;40431;52.198;9.902;2022-11-20T04:52:45;100280.47;;;-3.89;98.44
17525;BME280;40431;52.198;9.902;2022-11-20T04:55:12;100284.91;;;-3.92;97.94
17525;BME280;40431;52.198;9.902;2022-11-20T04:57:39;100279.69;;;-4.05;96.70
17525;BME280;40431;52.198;9.902;2022-11-20T05:00:08;100280.66;;;-4.20;96.16
17525;BME280;40431;52.198;9.902;2022-11-20T05:02:35;100278.09;;;-4.32;96.38
17525;BME280;40431;52.198;9.902;2022-11-20T05:05:01;100267.53;;;-4.40;96.41
17525;BME280;40431;52.198;9.902;2022-11-20T05:07:28;100280.69;;;-4.29;98.36
17525;BME280;40431;52.198;9.902;2022-11-20T05:09:54;100269.16;;;-4.15;99.99
17525;BME280;40431;52.198;9.902;2022-11-20T05:12:21;100276.16;;;-4.04;100.00
17525;BME280;40431;52.198;9.902;2022-11-20T05:14:47;100265.53;;;-3.96;100.00
17525;BME280;40431;52.198;9.902;2022-11-20T05:17:15;100273.41;;;-3.90;100.00
17525;BME280;40431;52.198;9.902;2022-11-20T05:19:42;100278.72;;;-3.87;100.00
17525;BME280;40431;52.198;9.902;2022-11-20T05:22:08;100276.13;;;-3.96;100.00
17525;BME280;40431;52.198;9.902;2022-11-20T05:24:35;100266.47;;;-4.06;99.61
17525;BME280;40431;52.198;9.902;2022-11-20T05:27:01;100262.00;;;-3.95;100.00
17525;BME280;40431;52.198;9.902;2022-11-20T05:29:28;100264.56;;;-3.87;100.00
17525;BME280;40431;52.198;9.902;2022-11-20T05:31:55;100261.03;;;-3.81;100.00
17525;BME280;40431;52.198;9.902;2022-11-20T05:34:23;100247.78;;;-3.84;100.00
17525;BME280;40431;52.198;9.902;2022-11-20T05:36:49;100246.00;;;-3.82;100.00
17525;BME280;40431;52.198;9.902;2022-11-20T05:39:16;100246.00;;;-3.82;100.00
17525;BME280;40431;52.198;9.902;2022-11-20T05:41:42;100246.97;;;-3.99;99.58
17525;BME280;40431;52.198;9.902;2022-11-20T05:44:10;100244.47;;;-4.19;98.97
17525;BME280;40431;52.198;9.902;2022-11-20T05:46:36;100252.47;;;-4.30;99.08
17525;BME280;40431;52.198;9.902;2022-11-20T05:49:03;100255.19;;;-4.44;99.32
17525;BME280;40431;52.198;9.902;2022-11-20T05:51:31;100247.25;;;-4.45;100.00
17525;BME280;40431;52.198;9.902;2022-11-20T05:53:57;100259.56;;;-4.32;100.00
17525;BME280;40431;52.198;9.902;2022-11-20T05:56:24;100271.84;;;-4.18;100.00
17525;BME280;40431;52.198;9.902;2022-11-20T05:58:51;100268.31;;;-4.21;100.00
17525;BME280;40431;52.198;9.902;2022-11-20T06:01:19;100269.13;;;-4.12;100.00
17525;BME280;40431;52.198;9.902;2022-11-20T06:03:46;100261.13;;;-4.00;100.00
17525;BME280;40431;52.198;9.902;2022-11-20T06:06:15;100271.72;;;-3.97;100.00
17525;BME280;40431;52.198;9.902;2022-11-20T06:08:43;100262.03;;;-4.01;100.00
17525;BME280;40431;52.198;9.902;2022-11-20T06:11:11;100275.22;;;-3.92;100.00
17525;BME280;40431;52.198;9.902;2022-11-20T06:13:38;100270.72;;;-3.83;100.00
17525;BME280;40431;52.198;9.902;2022-11-20T06:16:05;100264.50;;;-3.73;100.00
17525;BME280;40431;52.198;9.902;2022-11-20T06:18:32;100275.91;;;-3.66;100.00
17525;BME280;40431;52.198;9.902;2022-11-20T06:21:01;100273.22;;;-3.62;100.00
17525;BME280;40431;52.198;9.902;2022-11-20T06:23:28;100263.47;;;-3.58;100.00
17525;BME280;40431;52.198;9.902;2022-11-20T06:25:58;100266.13;;;-3.57;100.00
17525;BME280;40431;52.198;9.902;2022-11-20T06:28:26;100259.91;;;-3.54;100.00
17525;BME280;40431;52.198;9.902;2022-11-20T06:30:59;100265.19;;;-3.48;100.00
17525;BME280;40431;52.198;9.902;2022-11-20T06:33:28;100268.63;;;-3.38;100.00
17525;BME280;40431;52.198;9.902;2022-11-20T06:35:59;100262.44;;;-3.37;100.00
17525;BME280;40431;52.198;9.902;2022-11-20T06:38:28;100262.34;;;-3.28;100.00
17525;BME280;40431;52.198;9.902;2022-11-20T06:41:00;100262.34;;;-3.28;100.00
17525;BME280;40431;52.198;9.902;2022-11-20T06:43:33;100249.94;;;-3.26;100.00
17525;BME280;40431;52.198;9.902;2022-11-20T06:46:02;100252.59;;;-3.23;100.00
17525;BME280;40431;52.198;9.902;2022-11-20T06:48:34;100249.94;;;-3.23;100.00
17525;BME280;40431;52.198;9.902;2022-11-20T06:51:05;100258.78;;;-3.25;100.00
17525;BME280;40431;52.198;9.902;2022-11-20T06:53:34;100241.94;;;-3.20;100.00
17525;BME280;40431;52.198;9.902;2022-11-20T06:56:06;100240.16;;;-3.16;100.00
17525;BME280;40431;52.198;9.902;2022-11-20T06:58:35;100240.09;;;-3.13;100.00
17525;BME280;40431;52.198;9.902;2022-11-20T07:01:05;100235.66;;;-3.09;100.00
17525;BME280;40431;52.198;9.902;2022-11-20T07:03:33;100238.34;;;-3.12;100.00
17525;BME280;40431;52.198;9.902;2022-11-20T07:06:00;100239.25;;;-3.16;100.00
17525;BME280;40431;52.198;9.902;2022-11-20T07:08:27;100232.22;;;-3.17;100.00
17525;BME280;40431;52.198;9.902;2022-11-20T07:10:57;100227.72;;;-3.14;100.00
17525;BME280;40431;52.198;9.902;2022-11-20T07:13:26;100226.78;;;-3.05;100.00
17525;BME280;40431;52.198;9.902;2022-11-20T07:15:52;100221.41;;;-3.02;100.00
17525;BME280;40431;52.198;9.902;2022-11-20T07:18:19;100225.06;;;-3.14;100.00
17525;BME280;40431;52.198;9.902;2022-11-20T07:20:46;100230.34;;;-3.09;100.00
17525;BME280;40431;52.198;9.902;2022-11-20T07:23:12;100230.53;;;-3.28;100.00
17525;BME280;40431;52.198;9.902;2022-11-20T07:25:39;100237.78;;;-3.48;100.00
17525;BME280;40431;52.198;9.902;2022-11-20T07:28:05;100235.19;;;-3.55;100.00
17525;BME280;40431;52.198;9.902;2022-11-20T07:30:33;100225.44;;;-3.49;100.00
17525;BME280;40431;52.198;9.902;2022-11-20T07:33:00;100237.72;;;-3.42;100.00
17525;BME280;40431;52.198;9.902;2022-11-20T07:35:26;100242.91;;;-3.27;100.00
17525;BME280;40431;52.198;9.902;2022-11-20T07:37:53;100241.16;;;-3.29;100.00
17525;BME280;40431;52.198;9.902;2022-11-20T07:40:19;100240.25;;;-3.30;100.00
17525;BME280;40431;52.198;9.902;2022-11-20T07:42:49;100235.84;;;-3.28;100.00
17525;BME280;40431;52.198;9.902;2022-11-20T07:45:16;100241.97;;;-3.23;100.00
17525;BME280;40431;52.198;9.902;2022-11-20T07:47:44;100237.47;;;-3.14;100.00
17525;BME280;40431;52.198;9.902;2022-11-20T07:50:11;100249.75;;;-3.04;100.00
17525;BME280;40431;52.198;9.902;2022-11-20T07:52:38;100246.13;;;-2.94;100.00
17525;BME280;40431;52.198;9.902;2022-11-20T07:55:07;100242.50;;;-2.87;100.00
17525;BME280;40431;52.198;9.902;2022-11-20T07:57:33;100244.16;;;-2.76;100.00
17525;BME280;40431;52.198;9.902;2022-11-20T08:00:00;100254.69;;;-2.70;100.00
17525;BME280;40431;52.198;9.902;2022-11-20T08:02:26;100254.56;;;-2.61;100.00
17525;BME280;40431;52.198;9.902;2022-11-20T08:04:54;100256.41;;;-2.66;100.00
17525;BME280;40431;52.198;9.902;2022-11-20T08:07:21;100250.28;;;-2.70;100.00
17525;BME280;40431;52.198;9.902;2022-11-20T08:09:47;100249.31;;;-2.64;100.00
17525;BME280;40431;52.198;9.902;2022-11-20T08:12:17;100250.13;;;-2.59;100.00
17525;BME280;40431;52.198;9.902;2022-11-20T08:15:02;100243.81;;;-2.48;100.00
17525;BME280;40431;52.198;9.902;2022-11-20T08:17:29;100251.78;;;-2.50;100.00
17525;BME280;40431;52.198;9.902;2022-11-20T08:19:57;100255.56;;;-2.70;100.00
17525;BME280;40431;52.198;9.902;2022-11-20T08:22:23;100254.69;;;-2.70;99.87
17525;BME280;40431;52.198;9.902;2022-11-20T08:24:50;100245.81;;;-2.69;100.00
17525;BME280;40431;52.198;9.902;2022-11-20T08:27:17;100254.56;;;-2.58;100.00
17525;BME280;40431;52.198;9.902;2022-11-20T08:29:44;100251.88;;;-2.56;100.00
17525;BME280;40431;52.198;9.902;2022-11-20T08:32:10;100251.81;;;-2.52;100.00
17525;BME280;40431;52.198;9.902;2022-11-20T08:34:37;100252.63;;;-2.43;100.00
17525;BME280;40431;52.198;9.902;2022-11-20T08:37:05;100259.59;;;-2.36;100.00
17525;BME280;40431;52.198;9.902;2022-11-20T08:39:31;100258.75;;;-2.40;100.00
17525;BME280;40431;52.198;9.902;2022-11-20T08:41:58;100257.91;;;-2.45;100.00
17525;BME280;40431;52.198;9.902;2022-11-20T08:44:24;100253.50;;;-2.44;100.00
17525;BME280;40431;52.198;9.902;2022-11-20T08:46:51;100255.22;;;-2.40;100.00
17525;BME280;40431;52.198;9.902;2022-11-20T08:49:17;100252.47;;;-2.34;100.00
17525;BME280;40431;52.198;9.902;2022-11-20T08:51:44;100256.88;;;-2.33;98.61
17525;BME280;40431;52.198;9.902;2022-11-20T08:54:14;100247.97;;;-2.29;98.92
17525;BME280;40431;52.198;9.902;2022-11-20T08:56:42;100250.63;;;-2.26;98.18
17525;BME280;40431;52.198;9.902;2022-11-20T08:59:09;100247.00;;;-2.22;96.80
17525;BME280;40431;52.198;9.902;2022-11-20T09:01:35;100250.50;;;-2.18;94.73
17525;BME280;40431;52.198;9.902;2022-11-20T09:04:02;100258.38;;;-2.12;93.49
17525;BME280;40431;52.198;9.902;2022-11-20T09:06:29;100254.75;;;-2.06;91.59
17525;BME280;40431;52.198;9.902;2022-11-20T09:08:56;100255.59;;;-2.03;92.27
17525;BME280;40431;52.198;9.902;2022-11-20T09:11:24;100248.47;;;-1.99;92.45
17525;BME280;40431;52.198;9.902;2022-11-20T09:13:51;100244.03;;;-2.00;93.32
17525;BME280;40431;52.198;9.902;2022-11-20T09:16:17;100250.13;;;-1.92;94.15
17525;BME280;40431;52.198;9.902;2022-11-20T09:18:44;100242.91;;;-1.83;95.28
17525;BME280;40431;52.198;9.902;2022-11-20T09:21:12;100244.59;;;-1.76;95.93
17525;BME280;40431;52.198;9.902;2022-11-20T09:23:39;100233.06;;;-1.75;95.98
17525;BME280;40431;52.198;9.902;2022-11-20T09:26:07;100228.53;;;-1.69;95.66
17525;BME280;40431;52.198;9.902;2022-11-20T09:28:38;100212.56;;;-1.69;95.76
17525;BME280;40431;52.198;9.902;2022-11-20T09:31:05;100208.97;;;-1.64;95.75
17525;BME280;40431;52.198;9.902;2022-11-20T09:33:32;100221.19;;;-1.56;93.24
17525;BME280;40431;52.198;9.902;2022-11-20T09:35:58;100234.44;;;-1.51;89.43
17525;BME280;40431;52.198;9.902;2022-11-20T09:38:25;100236.16;;;-1.48;87.17
17525;BME280;40431;52.198;9.902;2022-11-20T09:40:56;100228.25;;;-1.52;86.90
17525;BME280;40431;52.198;9.902;2022-11-20T09:43:31;100232.59;;;-1.46;86.94
17525;BME280;40431;52.198;9.902;2022-11-20T09:46:08;100238.59;;;-1.36;86.71
17525;BME280;40431;52.198;9.902;2022-11-20T09:48:51;100231.34;;;-1.25;84.60
17525;BME280;40431;52.198;9.902;2022-11-20T09:51:31;100229.50;;;-1.23;83.77
17525;BME280;40431;52.198;9.902;2022-11-20T09:54:09;100218.03;;;-1.25;84.76
17525;BME280;40431;52.198;9.902;2022-11-20T09:56:42;100209.09;;;-1.21;85.49
17525;BME280;40431;52.198;9.902;2022-11-20T09:59:23;100194.09;;;-1.25;85.52
17525;BME280;40431;52.198;9.902;2022-11-20T10:01:54;100190.63;;;-1.30;84.34
17525;BME280;40431;52.198;9.902;2022-11-20T10:04:22;100179.25;;;-1.38;83.32
17525;BME280;40431;52.198;9.902;2022-11-20T10:06:55;100183.72;;;-1.40;82.50
17525;BME280;40431;52.198;9.902;2022-11-20T10:09:28;100185.44;;;-1.38;82.60
17525;BME280;40431;52.198;9.902;2022-11-20T10:12:07;100194.19;;;-1.31;81.77
17525;BME280;40431;52.198;9.902;2022-11-20T10:14:46;100202.94;;;-1.24;81.10
17525;BME280;40431;52.198;9.902;2022-11-20T10:17:23;100222.25;;;-1.14;80.70
17525;BME280;40431;52.198;9.902;2022-11-20T10:20:02;100220.25;;;-1.02;81.41
17525;BME280;40431;52.198;9.902;2022-11-20T10:22:55;100232.38;;;-0.85;81.22
17525;BME280;40431;52.198;9.902;2022-11-20T10:25:32;100242.09;;;-0.84;81.12
17525;BME280;40431;52.198;9.902;2022-11-20T10:28:14;100235.84;;;-0.81;81.78
17525;BME280;40431;52.198;9.902;2022-11-20T10:30:44;100230.56;;;-0.83;82.37
17525;BME280;40431;52.198;9.902;2022-11-20T10:33:17;100230.53;;;-0.81;83.00
17525;BME280;40431;52.198;9.902;2022-11-20T10:35:50;100228.72;;;-0.79;83.26
17525;BME280;40431;52.198;9.902;2022-11-20T10:38:22;100222.53;;;-0.81;83.14
17525;BME280;40431;52.198;9.902;2022-11-20T10:40:54;100215.59;;;-0.89;82.83
17525;BME280;40431;52.198;9.902;2022-11-20T10:43:43;100208.53;;;-0.91;83.01
17525;BME280;40431;52.198;9.902;2022-11-20T10:46:15;100215.56;;;-0.87;83.55
17525;BME280;40431;52.198;9.902;2022-11-20T10:48:45;100210.13;;;-0.82;83.44
17525;BME280;40431;52.198;9.902;2022-11-20T10:51:25;100212.00;;;-0.86;83.55
17525;BME280;40431;52.198;9.902;2022-11-20T10:54:01;100206.72;;;-0.89;83.18
17525;BME280;40431;52.198;9.902;2022-11-20T10:56:38;100206.72;;;-0.89;83.22
17525;BME280;40431;52.198;9.902;2022-11-20T10:59:32;100198.72;;;-0.88;84.20
17525;BME280;40431;52.198;9.902;2022-11-20T11:02:14;100200.34;;;-0.80;84.54
17525;BME280;40431;52.198;9.902;2022-11-20T11:04:46;100200.41;;;-0.83;84.06
17525;BME280;40431;52.198;9.902;2022-11-20T11:07:17;100195.88;;;-0.78;84.04
17525;BME280;40431;52.198;9.902;2022-11-20T11:09:49;100185.22;;;-0.80;83.44
17525;BME280;40431;52.198;9.902;2022-11-20T11:12:22;100177.25;;;-0.78;83.47
17525;BME280;40431;52.198;9.902;2022-11-20T11:14:53;100178.00;;;-0.73;83.53
17525;BME280;40431;52.198;9.902;2022-11-20T11:17:24;100169.81;;;-0.64;83.70
17525;BME280;40431;52.198;9.902;2022-11-20T11:20:06;100171.44;;;-0.57;83.08
17525;BME280;40431;52.198;9.902;2022-11-20T11:22:44;100169.69;;;-0.58;82.80
17525;BME280;40431;52.198;9.902;2022-11-20T11:25:24;100173.25;;;-0.59;82.24
17525;BME280;40431;52.198;9.902;2022-11-20T11:27:54;100169.81;;;-0.64;82.31
17525;BME280;40431;52.198;9.902;2022-11-20T11:30:24;100163.63;;;-0.64;82.43
17525;BME280;40431;52.198;9.902;2022-11-20T11:33:09;100155.44;;;-0.55;83.14
17525;BME280;40431;52.198;9.902;2022-11-20T11:35:45;100161.41;;;-0.45;81.82
17525;BME280;40431;52.198;9.902;2022-11-20T11:38:19;100157.91;;;-0.46;81.36
17525;BME280;40431;52.198;9.902;2022-11-20T11:40:52;100147.97;;;-0.39;81.59
17525;BME280;40431;52.198;9.902;2022-11-20T11:43:25;100146.16;;;-0.37;82.10
17525;BME280;40431;52.198;9.902;2022-11-20T11:46:25;100141.56;;;-0.30;81.68
17525;BME280;40431;52.198;9.902;2022-11-20T11:48:56;100146.97;;;-0.34;81.55
17525;BME280;40431;52.198;9.902;2022-11-20T11:51:31;100149.44;;;-0.26;81.25
17525;BME280;40431;52.198;9.902;2022-11-20T11:54:00;100148.53;;;-0.25;81.32
17525;BME280;40431;52.198;9.902;2022-11-20T11:56:30;100154.84;;;-0.29;81.60
17525;BME280;40431;52.198;9.902;2022-11-20T11:59:04;100150.31;;;-0.24;81.78
17525;BME280;40431;52.198;9.902;2022-11-20T12:01:39;100138.72;;;-0.23;82.44
17525;BME280;40431;52.198;9.902;2022-11-20T12:04:14;100142.06;;;-0.13;81.59
17525;BME280;40431;52.198;9.902;2022-11-20T12:06:48;100132.25;;;-0.12;82.24
17525;BME280;40431;52.198;9.902;2022-11-20T12:09:18;100129.31;;;0.00;82.14
17525;BME280;40431;52.198;9.902;2022-11-20T12:11:52;100125.56;;;0.07;82.12
17525;BME280;40431;52.198;9.902;2022-11-20T12:14:26;100119.22;;;0.13;80.82
17525;BME280;40431;52.198;9.902;2022-11-20T12:16:55;100113.00;;;0.12;81.13
17525;BME280;40431;52.198;9.902;2022-11-20T12:19:23;100118.41;;;0.09;81.06
17525;BME280;40431;52.198;9.902;2022-11-20T12:21:57;100114.78;;;0.13;81.56
17525;BME280;40431;52.198;9.902;2022-11-20T12:24:42;100120.00;;;0.16;81.87
17525;BME280;40431;52.198;9.902;2022-11-20T12:30:32;100122.63;;;0.18;81.69
17525;BME280;40431;52.198;9.902;2022-11-20T12:33:13;100123.44;;;0.22;80.95
17525;BME280;40431;52.198;9.902;2022-11-20T12:35:57;100117.19;;;0.23;81.49
17525;BME280;40431;52.198;9.902;2022-11-20T12:38:41;100115.25;;;0.29;81.49
17525;BME280;40431;52.198;9.902;2022-11-20T12:41:15;100119.41;;;0.41;81.51
17525;BME280;40431;52.198;9.902;2022-11-20T12:44:17;100115.72;;;0.45;80.85
17525;BME280;40431;52.198;9.902;2022-11-20T12:47:13;100109.44;;;0.48;80.93
17525;BME280;40431;52.198;9.902;2022-11-20T12:49:51;100112.13;;;0.46;81.68
17525;BME280;40431;52.198;9.902;2022-11-20T12:52:34;100099.63;;;0.48;81.62
17525;BME280;40431;52.198;9.902;2022-11-20T12:55:23;100112.06;;;0.49;81.89
17525;BME280;40431;52.198;9.902;2022-11-20T12:57:55;100104.00;;;0.51;82.53
17525;BME280;40431;52.198;9.902;2022-11-20T13:00:24;100099.53;;;0.52;82.43
17525;BME280;40431;52.198;9.902;2022-11-20T13:03:09;100094.03;;;0.58;82.53
17525;BME280;40431;52.198;9.902;2022-11-20T13:05:47;100094.69;;;0.66;82.13
17525;BME280;40431;52.198;9.902;2022-11-20T13:08:20;100095.59;;;0.66;82.27